createdAt,value
2018-03-30T00:02:01.109Z,73.96
2018-03-30T00:04:29.353Z,73.39
2018-03-30T00:06:57.604Z,74.00
2018-03-30T00:09:44.473Z,75.72
2018-03-30T00:12:12.722Z,75.97
2018-03-30T00:14:40.966Z,75.37
2018-03-30T00:17:09.214Z,77.29
2018-03-30T00:19:37.455Z,76.95
2018-03-30T00:22:05.701Z,78.89
2018-03-30T00:24:34.714Z,78.49
2018-03-30T00:27:02.961Z,78.11
2018-03-30T00:29:31.978Z,78.71
2018-03-30T00:32:00.225Z,79.83
2018-03-30T00:34:28.469Z,80.20
2018-03-30T00:36:56.728Z,81.71
2018-03-30T00:39:24.986Z,80.89
2018-03-30T00:41:53.230Z,80.58
2018-03-30T00:44:21.482Z,79.67
2018-03-30T00:46:49.730Z,79.74
2018-03-30T00:49:17.981Z,80.33
2018-03-30T00:51:46.233Z,79.67
2018-03-30T00:54:15.254Z,80.33
2018-03-30T00:56:43.501Z,80.26
2018-03-30T00:59:11.754Z,80.16
2018-03-30T01:01:40.002Z,81.68
2018-03-30T01:04:08.253Z,83.43
2018-03-30T01:06:36.493Z,83.46
2018-03-30T01:09:04.746Z,83.73
2018-03-30T01:11:32.989Z,83.10
2018-03-30T01:14:01.267Z,82.08
2018-03-30T01:16:29.508Z,82.44
2018-03-30T01:18:58.516Z,82.39
2018-03-30T01:21:27.529Z,83.36
2018-03-30T01:23:55.774Z,82.93
2018-03-30T01:26:24.797Z,83.31
2018-03-30T01:28:53.045Z,83.25
2018-03-30T01:31:22.070Z,83.31
2018-03-30T01:33:50.317Z,82.35
2018-03-30T01:36:19.343Z,82.43
2018-03-30T01:38:47.598Z,82.83
2018-03-30T01:41:15.850Z,82.92
2018-03-30T01:43:44.865Z,82.71
2018-03-30T01:46:13.121Z,83.87
2018-03-30T01:48:42.134Z,84.28
2018-03-30T01:51:10.419Z,83.94
2018-03-30T01:53:38.662Z,84.46
2018-03-30T01:56:07.690Z,84.60
2018-03-30T01:58:35.942Z,84.98
2018-03-30T02:01:04.942Z,84.74
2018-03-30T02:03:33.196Z,84.63
2018-03-30T02:06:02.213Z,84.53
2018-03-30T02:08:30.467Z,84.90
2018-03-30T02:10:59.478Z,84.29
2018-03-30T02:13:28.499Z,84.66
2018-03-30T02:15:56.795Z,84.14
2018-03-30T02:18:25.005Z,84.29
2018-03-30T02:20:54.017Z,84.29
2018-03-30T02:23:22.269Z,84.49
2018-03-30T02:25:51.288Z,86.10
2018-03-30T02:28:19.560Z,85.54
2018-03-30T02:30:48.711Z,85.60
2018-03-30T02:33:16.952Z,84.70
2018-03-30T02:35:45.209Z,84.33
2018-03-30T02:38:13.466Z,84.50
2018-03-30T02:40:41.722Z,84.49
2018-03-30T02:43:09.972Z,84.26
2018-03-30T02:45:38.223Z,85.24
2018-03-30T02:48:06.472Z,85.67
2018-03-30T02:50:35.493Z,86.01
2018-03-30T02:53:03.738Z,86.26
2018-03-30T02:55:32.762Z,86.66
2018-03-30T02:58:01.007Z,87.13
2018-03-30T03:00:30.025Z,86.87
2018-03-30T03:02:58.277Z,86.80
2018-03-30T03:05:27.301Z,85.65
2018-03-30T03:07:55.541Z,85.89
2018-03-30T03:10:24.565Z,85.39
2018-03-30T03:12:52.820Z,84.99
2018-03-30T03:15:21.829Z,84.81
2018-03-30T03:17:50.084Z,84.16
2018-03-30T03:20:19.093Z,84.51
2018-03-30T03:22:47.363Z,84.42
2018-03-30T03:25:16.374Z,84.05
2018-03-30T03:27:44.625Z,84.54
2018-03-30T03:30:13.652Z,84.61
2018-03-30T03:32:41.897Z,84.41
2018-03-30T03:35:10.913Z,84.18
2018-03-30T03:37:39.173Z,84.80
2018-03-30T03:40:07.426Z,84.75
2018-03-30T03:42:36.440Z,84.71
2018-03-30T03:45:04.691Z,84.90
2018-03-30T03:47:32.944Z,84.94
2018-03-30T03:50:01.295Z,85.12
2018-03-30T03:52:29.543Z,85.53
2018-03-30T03:54:58.549Z,85.27
2018-03-30T03:57:26.810Z,85.07
2018-03-30T03:59:55.821Z,85.25
2018-03-30T04:02:24.083Z,85.60
2018-03-30T04:04:52.338Z,85.75
2018-03-30T04:07:21.353Z,85.49
2018-03-30T04:09:49.613Z,85.24
2018-03-30T04:12:18.643Z,84.87
2018-03-30T04:14:46.885Z,84.45
2018-03-30T04:17:15.904Z,84.61
2018-03-30T04:19:44.162Z,84.20
2018-03-30T04:22:12.409Z,84.37
2018-03-30T04:24:40.669Z,85.03
2018-03-30T04:27:08.914Z,85.24
2018-03-30T04:29:37.175Z,86.41
2018-03-30T04:32:05.423Z,86.90
2018-03-30T04:34:34.435Z,86.30
2018-03-30T04:37:02.718Z,86.82
2018-03-30T04:39:30.978Z,87.12
2018-03-30T04:41:59.993Z,86.85
2018-03-30T04:44:28.234Z,86.49
2018-03-30T04:46:57.254Z,86.14
2018-03-30T04:49:25.497Z,86.43
2018-03-30T04:51:54.518Z,86.50
2018-03-30T04:54:22.769Z,86.06
2018-03-30T04:56:51.795Z,85.73
2018-03-30T04:59:20.033Z,85.56
2018-03-30T05:01:49.054Z,85.69
2018-03-30T05:04:17.302Z,86.28
2018-03-30T05:06:45.558Z,86.02
2018-03-30T05:09:13.809Z,85.52
2018-03-30T05:11:42.061Z,85.38
2018-03-30T05:14:10.312Z,85.64
2018-03-30T05:16:39.333Z,86.04
2018-03-30T05:19:07.585Z,85.56
2018-03-30T05:21:36.613Z,85.32
2018-03-30T05:24:04.869Z,85.24
2018-03-30T05:26:33.113Z,85.05
2018-03-30T05:29:01.366Z,85.18
2018-03-30T05:31:29.616Z,85.98
2018-03-30T05:33:57.875Z,87.14
2018-03-30T05:36:26.120Z,87.52
2018-03-30T05:38:55.145Z,87.80
2018-03-30T05:41:23.393Z,87.82
2018-03-30T05:43:52.413Z,87.51
2018-03-30T05:46:20.683Z,87.22
2018-03-30T05:48:49.690Z,87.45
2018-03-30T05:51:17.939Z,87.31
2018-03-30T05:53:46.957Z,87.83
2018-03-30T05:56:15.197Z,87.07
2018-03-30T05:58:44.218Z,87.56
2018-03-30T06:01:12.465Z,87.43
2018-03-30T06:03:40.718Z,86.52
2018-03-30T06:06:08.977Z,85.96
2018-03-30T06:08:37.227Z,85.64
2018-03-30T06:11:05.473Z,86.26
2018-03-30T06:13:34.485Z,86.06
2018-03-30T06:16:02.747Z,85.54
2018-03-30T06:18:31.757Z,85.10
2018-03-30T06:21:00.022Z,84.66
2018-03-30T06:23:29.033Z,84.66
2018-03-30T06:25:57.293Z,84.46
2018-03-30T06:28:25.536Z,84.75
2018-03-30T06:30:53.800Z,84.61
2018-03-30T06:33:22.045Z,84.26
2018-03-30T06:35:50.299Z,84.29
2018-03-30T06:38:18.579Z,83.73
2018-03-30T06:40:46.802Z,83.05
2018-03-30T06:43:15.049Z,83.18
2018-03-30T06:45:43.306Z,82.26
2018-03-30T06:48:11.552Z,82.01
2018-03-30T06:50:40.594Z,82.17
2018-03-30T06:53:08.840Z,81.66
2018-03-30T06:55:37.094Z,81.52
2018-03-30T06:58:06.220Z,80.63
2018-03-30T07:00:34.472Z,80.58
2018-03-30T07:03:03.498Z,79.71
2018-03-30T07:05:31.744Z,79.74
2018-03-30T07:08:00.766Z,79.52
2018-03-30T07:10:29.009Z,78.46
2018-03-30T07:12:58.033Z,77.23
2018-03-30T07:15:26.285Z,77.66
2018-03-30T07:17:55.307Z,77.36
2018-03-30T07:20:23.555Z,77.42
2018-03-30T07:22:52.566Z,76.68
2018-03-30T07:25:20.815Z,76.46
2018-03-30T07:27:49.828Z,77.20
2018-03-30T07:30:18.073Z,77.03
2018-03-30T07:32:46.324Z,76.58
2018-03-30T07:35:14.576Z,75.26
2018-03-30T07:37:42.825Z,75.31
2018-03-30T07:40:11.073Z,75.25
2018-03-30T07:42:39.325Z,75.47
2018-03-30T07:45:07.576Z,74.83
2018-03-30T07:47:35.845Z,73.54
2018-03-30T07:50:04.096Z,73.90
2018-03-30T07:52:33.089Z,73.41
2018-03-30T07:55:02.105Z,72.95
2018-03-30T07:57:30.350Z,72.56
2018-03-30T07:59:59.370Z,72.67
2018-03-30T08:02:27.617Z,73.07
2018-03-30T08:04:56.632Z,73.87
2018-03-30T08:07:24.879Z,73.45
2018-03-30T08:09:53.134Z,72.11
2018-03-30T08:12:21.384Z,70.61
2018-03-30T08:14:49.643Z,72.06
2018-03-30T08:17:17.888Z,70.06
2018-03-30T08:19:46.905Z,70.39
2018-03-30T08:22:15.153Z,72.06
2018-03-30T08:24:44.165Z,70.29
2018-03-30T08:27:12.414Z,69.26
2018-03-30T08:29:40.671Z,70.10
2018-03-30T08:32:08.948Z,69.56
2018-03-30T08:34:37.874Z,70.19
2018-03-30T08:37:06.884Z,69.46
2018-03-30T08:39:35.160Z,68.96
2018-03-30T08:42:03.401Z,69.52
2018-03-30T08:44:31.653Z,69.52
2018-03-30T08:46:59.943Z,69.53
2018-03-30T08:49:28.157Z,69.31
2018-03-30T08:51:56.409Z,69.59
2018-03-30T08:54:25.430Z,69.60
2018-03-30T08:56:53.677Z,68.88
2018-03-30T08:59:22.686Z,68.49
2018-03-30T09:01:50.945Z,67.73
2018-03-30T09:04:19.956Z,69.06
2018-03-30T09:06:48.975Z,68.42
2018-03-30T09:09:17.218Z,68.76
2018-03-30T09:11:46.242Z,69.67
2018-03-30T09:14:14.489Z,69.30
2018-03-30T09:16:43.510Z,67.96
2018-03-30T09:19:11.758Z,67.93
2018-03-30T09:21:40.775Z,68.25
2018-03-30T09:24:09.024Z,68.37
2018-03-30T09:26:38.042Z,66.74
2018-03-30T09:29:06.286Z,66.47
2018-03-30T09:31:35.335Z,63.83
2018-03-30T09:34:03.579Z,65.88
2018-03-30T09:36:31.821Z,65.77
2018-03-30T09:39:00.977Z,64.55
2018-03-30T09:41:29.244Z,63.47
2018-03-30T09:43:57.496Z,63.08
2018-03-30T09:46:25.756Z,63.52
2018-03-30T09:48:54.766Z,63.39
2018-03-30T09:51:23.012Z,62.33
2018-03-30T09:53:51.262Z,62.99
2018-03-30T09:56:19.510Z,63.52
2018-03-30T09:58:47.758Z,63.27
2018-03-30T10:01:16.768Z,62.99
2018-03-30T10:03:48.465Z,63.28
2018-03-30T10:06:16.718Z,63.28
2018-03-30T10:08:44.985Z,62.67
2018-03-30T10:11:13.234Z,63.14
2018-03-30T10:13:42.262Z,61.93
2018-03-30T10:16:10.513Z,61.14
2018-03-30T10:18:38.770Z,60.05
2018-03-30T10:21:07.798Z,59.71
2018-03-30T10:23:36.046Z,59.02
2018-03-30T10:26:05.060Z,60.28
2018-03-30T10:28:33.319Z,58.52
2018-03-30T10:31:01.596Z,59.04
2018-03-30T10:33:30.617Z,58.21
2018-03-30T10:35:58.906Z,56.08
2018-03-30T10:38:27.879Z,55.11
2018-03-30T10:40:56.125Z,55.29
2018-03-30T10:43:25.145Z,55.51
2018-03-30T10:45:53.397Z,55.53
2018-03-30T10:48:22.426Z,56.42
2018-03-30T10:50:50.673Z,57.12
2018-03-30T10:53:18.930Z,55.77
2018-03-30T10:55:47.945Z,53.68
2018-03-30T10:58:16.203Z,53.54
2018-03-30T11:00:45.243Z,57.21
2018-03-30T11:03:13.606Z,54.61
2018-03-30T11:05:41.865Z,54.30
2018-03-30T11:08:10.142Z,51.88
2018-03-30T11:10:38.396Z,50.46
2018-03-30T11:13:07.445Z,48.40
2018-03-30T11:15:35.705Z,51.76
2018-03-30T11:18:04.012Z,51.54
2018-03-30T11:20:32.245Z,49.92
2018-03-30T11:23:00.492Z,51.08
2018-03-30T11:25:28.750Z,49.49
2018-03-30T11:27:57.792Z,51.08
2018-03-30T11:30:26.050Z,50.72
2018-03-30T11:32:55.082Z,50.41
2018-03-30T11:35:23.322Z,50.09
2018-03-30T11:37:51.575Z,50.63
2018-03-30T11:40:20.602Z,47.63
2018-03-30T11:42:48.854Z,46.77
2018-03-30T11:45:17.867Z,45.58
2018-03-30T11:47:46.147Z,45.46
2018-03-30T11:50:14.393Z,45.08
2018-03-30T11:52:43.408Z,46.13
2018-03-30T11:55:11.659Z,47.83
2018-03-30T11:57:40.684Z,48.23
2018-03-30T12:00:08.930Z,47.73
2018-03-30T12:02:37.182Z,46.80
2018-03-30T12:05:05.421Z,46.67
2018-03-30T12:07:33.674Z,45.42
2018-03-30T12:10:01.924Z,44.49
2018-03-30T12:12:30.167Z,42.64
2018-03-30T12:14:58.420Z,44.56
2018-03-30T12:17:26.673Z,45.33
2018-03-30T12:19:54.921Z,47.25
2018-03-30T12:22:23.161Z,48.24
2018-03-30T12:24:51.414Z,47.95
2018-03-30T12:27:19.654Z,47.00
2018-03-30T12:29:48.671Z,48.13
2018-03-30T12:32:16.910Z,48.01
2018-03-30T12:34:45.162Z,44.52
2018-03-30T12:37:13.422Z,45.81
2018-03-30T12:39:41.670Z,45.01
2018-03-30T12:42:09.911Z,46.37
2018-03-30T12:44:38.165Z,46.19
2018-03-30T12:47:06.410Z,46.26
2018-03-30T12:49:34.653Z,45.61
2018-03-30T12:52:03.666Z,45.66
2018-03-30T12:54:31.922Z,45.44
2018-03-30T12:57:00.935Z,46.80
2018-03-30T12:59:29.182Z,46.37
2018-03-30T13:01:57.426Z,47.10
2018-03-30T13:04:25.678Z,47.26
2018-03-30T13:06:53.922Z,47.35
2018-03-30T13:09:22.977Z,46.62
2018-03-30T13:11:51.225Z,47.03
2018-03-30T13:14:19.519Z,47.77
2018-03-30T13:16:48.534Z,46.08
2018-03-30T13:19:18.289Z,45.66
2018-03-30T13:21:46.537Z,45.79
2018-03-30T13:24:15.550Z,45.11
2018-03-30T13:26:43.801Z,44.73
2018-03-30T13:29:12.046Z,44.29
2018-03-30T13:31:40.301Z,44.41
2018-03-30T13:34:08.544Z,43.61
2018-03-30T13:36:37.562Z,43.10
2018-03-30T13:39:05.809Z,44.65
2018-03-30T13:41:34.821Z,44.46
2018-03-30T13:44:03.065Z,43.84
2018-03-30T13:46:32.189Z,43.89
2018-03-30T13:49:00.429Z,43.35
2018-03-30T13:54:30.242Z,43.45
2018-03-30T13:57:03.522Z,43.15
2018-03-30T13:59:31.764Z,42.90
2018-03-30T14:05:17.031Z,43.83
2018-03-30T14:07:52.246Z,43.18
2018-03-30T14:10:35.381Z,43.11
2018-03-30T14:13:07.182Z,43.60
2018-03-30T14:15:39.224Z,43.22
2018-03-30T14:18:15.769Z,42.80
2018-03-30T14:20:44.018Z,43.34
2018-03-30T14:23:16.782Z,42.97
2018-03-30T14:25:55.338Z,43.34
2018-03-30T14:28:27.001Z,43.44
2018-03-30T14:34:07.721Z,42.84
2018-03-30T14:39:47.927Z,42.38
2018-03-30T14:42:16.892Z,41.94
2018-03-30T14:45:11.059Z,41.16
2018-03-30T14:47:52.706Z,40.60
2018-03-30T14:53:41.401Z,41.38
2018-03-30T14:56:11.469Z,42.05
2018-03-30T14:59:08.017Z,41.77
2018-03-30T15:04:59.974Z,41.79
2018-03-30T15:07:32.335Z,42.07
2018-03-30T15:10:08.810Z,42.53
2018-03-30T15:15:52.699Z,41.59
2018-03-30T15:18:25.089Z,41.70
2018-03-30T15:21:02.881Z,40.43
2018-03-30T15:23:33.426Z,41.38
2018-03-30T15:26:08.804Z,40.97
2018-03-30T15:28:38.418Z,40.56
2018-03-30T15:31:16.573Z,40.02
2018-03-30T15:34:04.074Z,39.86
2018-03-30T15:36:51.668Z,39.46
2018-03-30T15:39:19.933Z,40.21
2018-03-30T15:41:49.594Z,39.72
2018-03-30T15:44:17.835Z,38.51
2018-03-30T15:46:58.342Z,38.73
2018-03-30T15:49:28.230Z,38.13
2018-03-30T15:51:57.753Z,38.88
2018-03-30T15:54:25.201Z,38.53
2018-03-30T15:56:57.399Z,39.42
2018-03-30T15:59:25.644Z,39.87
2018-03-30T16:01:53.890Z,40.47
2018-03-30T16:04:22.130Z,40.30
2018-03-30T16:06:50.382Z,39.88
2018-03-30T16:09:19.429Z,40.42
2018-03-30T16:11:56.299Z,40.25
2018-03-30T16:14:24.537Z,40.82
2018-03-30T16:16:52.786Z,41.24
2018-03-30T16:19:20.246Z,41.59
2018-03-30T16:21:47.702Z,42.38
2018-03-30T16:24:15.148Z,41.99
2018-03-30T16:26:42.614Z,42.51
2018-03-30T16:29:10.082Z,42.91
2018-03-30T16:31:37.541Z,43.02
2018-03-30T16:34:04.994Z,43.00
2018-03-30T16:36:32.454Z,43.53
2018-03-30T16:38:59.904Z,43.60
2018-03-30T16:41:27.397Z,43.70
2018-03-30T16:43:55.626Z,44.20
2018-03-30T16:46:23.073Z,44.75
2018-03-30T16:48:50.620Z,44.51
2018-03-30T16:51:18.071Z,44.68
2018-03-30T16:53:45.529Z,45.04
2018-03-30T16:56:13.002Z,45.20
2018-03-30T16:58:40.485Z,45.36
2018-03-30T17:01:07.950Z,45.32
2018-03-30T17:03:35.423Z,45.04
2018-03-30T17:06:02.869Z,45.04
2018-03-30T17:08:30.332Z,45.82
2018-03-30T17:10:57.784Z,46.28
2018-03-30T17:13:25.246Z,45.86
2018-03-30T17:15:53.478Z,46.54
2018-03-30T17:18:20.933Z,46.60
2018-03-30T17:20:48.396Z,46.99
2018-03-30T17:23:15.863Z,47.13
2018-03-30T17:25:43.330Z,47.22
2018-03-30T17:28:10.790Z,47.67
2018-03-30T17:30:38.247Z,48.02
2018-03-30T17:33:05.713Z,49.13
2018-03-30T17:35:33.170Z,48.90
2018-03-30T17:38:00.637Z,49.31
2018-03-30T17:40:28.849Z,49.42
2018-03-30T17:42:56.315Z,49.24
2018-03-30T17:45:23.783Z,49.28
2018-03-30T17:47:51.234Z,49.48
2018-03-30T17:50:18.687Z,50.05
2018-03-30T17:52:46.138Z,49.97
2018-03-30T17:55:13.604Z,50.51
2018-03-30T17:57:41.062Z,50.84
2018-03-30T18:00:08.524Z,51.19
2018-03-30T18:02:35.981Z,51.58
2018-03-30T18:05:03.443Z,51.96
2018-03-30T18:07:30.897Z,52.37
2018-03-30T18:09:58.362Z,52.33
2018-03-30T18:12:25.813Z,52.57
2018-03-30T18:14:53.275Z,52.66
2018-03-30T18:17:20.734Z,52.73
2018-03-30T18:19:48.193Z,52.53
2018-03-30T18:22:15.654Z,52.80
2018-03-30T18:24:43.121Z,52.86
2018-03-30T18:27:10.578Z,52.97
2018-03-30T18:29:38.082Z,52.81
2018-03-30T18:32:05.543Z,52.86
2018-03-30T18:34:33.017Z,53.54
2018-03-30T18:37:00.469Z,53.55
2018-03-30T18:39:27.937Z,53.86
2018-03-30T18:41:55.389Z,53.68
2018-03-30T18:44:22.851Z,53.55
2018-03-30T18:46:50.301Z,54.17
2018-03-30T18:49:17.753Z,53.53
2018-03-30T18:51:45.217Z,53.33
2018-03-30T18:54:12.672Z,53.31
2018-03-30T18:56:40.138Z,54.55
2018-03-30T18:59:07.671Z,54.33
2018-03-30T19:01:35.133Z,54.31
2018-03-30T19:04:02.596Z,53.83
2018-03-30T19:06:36.383Z,53.54
2018-03-30T19:09:03.777Z,53.77
2018-03-30T19:11:31.247Z,53.53
2018-03-30T19:13:58.708Z,54.17
2018-03-30T19:16:26.184Z,54.83
2018-03-30T19:18:53.653Z,55.71
2018-03-30T19:21:21.882Z,58.05
2018-03-30T19:23:49.346Z,60.95
2018-03-30T19:26:16.839Z,62.67
2018-03-30T19:28:44.270Z,62.95
2018-03-30T19:31:11.733Z,62.82
2018-03-30T19:33:39.181Z,64.12
2018-03-30T19:36:06.641Z,67.53
2018-03-30T19:38:34.100Z,69.16
2018-03-30T19:41:01.559Z,69.19
2018-03-30T19:43:29.007Z,70.24
2018-03-30T19:45:56.461Z,72.43
2018-03-30T19:48:23.921Z,72.24
2018-03-30T19:50:51.445Z,73.91
2018-03-30T19:53:18.900Z,74.16
2018-03-30T19:55:46.352Z,74.04
2018-03-30T19:58:13.848Z,73.92
2018-03-30T20:00:41.329Z,74.54
2018-03-30T20:03:09.690Z,75.94
2018-03-30T20:05:37.141Z,74.94
2018-03-30T20:08:04.606Z,75.10
2018-03-30T20:10:32.057Z,75.98
2018-03-30T20:12:59.518Z,79.83
2018-03-30T20:15:26.972Z,79.97
2018-03-30T20:17:54.436Z,80.61
2018-03-30T20:20:21.881Z,81.61
2018-03-30T20:22:49.402Z,83.05
2018-03-30T20:25:16.851Z,83.39
2018-03-30T20:27:44.326Z,82.98
2018-03-30T20:30:11.801Z,82.07
2018-03-30T20:32:39.357Z,82.38
2018-03-30T20:35:06.826Z,82.46
2018-03-30T20:37:34.293Z,83.63
2018-03-30T20:40:02.536Z,83.80
2018-03-30T20:42:30.013Z,84.23
2018-03-30T20:44:57.478Z,84.29
2018-03-30T20:47:24.925Z,84.23
2018-03-30T20:49:52.389Z,82.62
2018-03-30T20:52:19.837Z,82.54
2018-03-30T20:54:47.310Z,83.84
2018-03-30T20:57:14.745Z,83.40
2018-03-30T20:59:42.199Z,83.38
2018-03-30T21:02:09.648Z,83.44
2018-03-30T21:04:37.105Z,84.50
2018-03-30T21:07:04.753Z,86.24
2018-03-30T21:09:32.205Z,86.73
2018-03-30T21:11:59.670Z,87.36
2018-03-30T21:14:27.125Z,88.75
2018-03-30T21:16:54.582Z,88.68
2018-03-30T21:19:22.029Z,88.26
2018-03-30T21:21:49.489Z,88.56
2018-03-30T21:24:16.942Z,88.74
2018-03-30T21:26:44.478Z,88.21
2018-03-30T21:29:12.694Z,89.08
2018-03-30T21:31:40.171Z,90.23
2018-03-30T21:34:07.639Z,90.19
2018-03-30T21:36:35.141Z,90.61
2018-03-30T21:39:02.654Z,90.54
2018-03-30T21:41:30.150Z,90.98
2018-03-30T21:43:58.361Z,91.37
2018-03-30T21:46:25.813Z,91.79
2018-03-30T21:48:53.261Z,92.72
2018-03-30T21:51:20.734Z,92.53
2018-03-30T21:53:48.185Z,92.60
2018-03-30T21:56:15.704Z,91.93
2018-03-30T21:58:43.993Z,91.87
2018-03-30T22:01:11.446Z,91.67
2018-03-30T22:03:39.669Z,92.09
2018-03-30T22:06:07.134Z,90.06
2018-03-30T22:08:34.589Z,90.50
2018-03-30T22:11:02.043Z,91.29
2018-03-30T22:13:29.506Z,91.29
2018-03-30T22:15:56.961Z,92.42
2018-03-30T22:18:24.417Z,89.91
2018-03-30T22:20:52.637Z,89.89
2018-03-30T22:23:20.107Z,90.24
2018-03-30T22:25:47.585Z,90.61
2018-03-30T22:28:15.106Z,89.15
2018-03-30T22:30:42.575Z,89.47
2018-03-30T22:33:10.090Z,89.53
2018-03-30T22:35:37.589Z,89.97
2018-03-30T22:38:05.043Z,90.96
2018-03-30T22:40:32.490Z,91.19
2018-03-30T22:43:00.714Z,91.51
2018-03-30T22:45:28.165Z,91.59
2018-03-30T22:47:55.614Z,91.36
2018-03-30T22:50:23.077Z,91.80
2018-03-30T22:52:50.524Z,92.11
2018-03-30T22:55:17.996Z,92.75
2018-03-30T22:57:45.458Z,92.63
2018-03-30T23:00:12.914Z,92.79
2018-03-30T23:02:40.378Z,92.81
2018-03-30T23:05:07.839Z,92.83
2018-03-30T23:07:35.305Z,92.96
2018-03-30T23:10:02.765Z,92.93
2018-03-30T23:12:30.213Z,93.55
2018-03-30T23:14:57.681Z,93.55
2018-03-30T23:17:25.147Z,93.12
2018-03-30T23:19:53.381Z,93.67
2018-03-30T23:22:20.843Z,93.24
2018-03-30T23:24:48.290Z,93.20
2018-03-30T23:27:15.756Z,93.32
2018-03-30T23:29:43.200Z,93.32
2018-03-30T23:32:10.666Z,92.86
2018-03-30T23:34:38.113Z,92.32
2018-03-30T23:37:05.581Z,92.31
2018-03-30T23:39:33.044Z,92.55
2018-03-30T23:42:00.498Z,92.81
2018-03-30T23:44:27.942Z,92.67
2018-03-30T23:46:55.400Z,92.81
2018-03-30T23:49:22.853Z,93.07
2018-03-30T23:51:50.325Z,93.12
2018-03-30T23:54:17.769Z,93.03
2018-03-30T23:56:45.238Z,92.85
2018-03-30T23:59:12.684Z,92.91
